sensor_id;sensor_type;location;lat;lon;timestamp;P1;durP1;ratioP1;P2;durP2;ratioP2
68089;SDS011;54880;50.986;6.990;2022-07-09T00:00:17;9.55;;;4.90;;
68089;SDS011;54880;50.986;6.990;2022-07-09T00:02:43;10.10;;;4.47;;
68089;SDS011;54880;50.986;6.990;2022-07-09T00:05:08;9.73;;;4.83;;
68089;SDS011;54880;50.986;6.990;2022-07-09T00:07:33;8.85;;;4.22;;
68089;SDS011;54880;50.986;6.990;2022-07-09T00:09:59;11.05;;;4.53;;
68089;SDS011;54880;50.986;6.990;2022-07-09T00:12:24;11.43;;;4.70;;
68089;SDS011;54880;50.986;6.990;2022-07-09T00:14:49;9.90;;;4.72;;
68089;SDS011;54880;50.986;6.990;2022-07-09T00:17:15;8.57;;;4.30;;
68089;SDS011;54880;50.986;6.990;2022-07-09T00:19:41;10.75;;;4.47;;
68089;SDS011;54880;50.986;6.990;2022-07-09T00:22:06;10.23;;;4.53;;
68089;SDS011;54880;50.986;6.990;2022-07-09T00:24:31;10.73;;;5.13;;
68089;SDS011;54880;50.986;6.990;2022-07-09T00:26:57;9.30;;;4.10;;
68089;SDS011;54880;50.986;6.990;2022-07-09T00:29:22;13.40;;;4.80;;
68089;SDS011;54880;50.986;6.990;2022-07-09T00:31:48;11.10;;;4.97;;
68089;SDS011;54880;50.986;6.990;2022-07-09T00:34:13;11.83;;;5.33;;
68089;SDS011;54880;50.986;6.990;2022-07-09T00:36:38;10.73;;;4.87;;
68089;SDS011;54880;50.986;6.990;2022-07-09T00:39:04;10.73;;;5.17;;
68089;SDS011;54880;50.986;6.990;2022-07-09T00:41:29;9.52;;;4.85;;
68089;SDS011;54880;50.986;6.990;2022-07-09T00:43:54;8.87;;;4.17;;
68089;SDS011;54880;50.986;6.990;2022-07-09T00:46:20;11.77;;;4.37;;
68089;SDS011;54880;50.986;6.990;2022-07-09T00:48:45;10.07;;;4.17;;
68089;SDS011;54880;50.986;6.990;2022-07-09T00:51:14;8.80;;;4.60;;
68089;SDS011;54880;50.986;6.990;2022-07-09T00:53:40;11.83;;;4.60;;
68089;SDS011;54880;50.986;6.990;2022-07-09T00:56:06;10.10;;;4.53;;
68089;SDS011;54880;50.986;6.990;2022-07-09T00:58:32;10.03;;;4.53;;
68089;SDS011;54880;50.986;6.990;2022-07-09T01:00:58;8.90;;;4.72;;
68089;SDS011;54880;50.986;6.990;2022-07-09T01:03:23;8.20;;;4.27;;
68089;SDS011;54880;50.986;6.990;2022-07-09T01:05:49;10.47;;;4.90;;
68089;SDS011;54880;50.986;6.990;2022-07-09T01:08:14;9.23;;;4.88;;
68089;SDS011;54880;50.986;6.990;2022-07-09T01:10:39;10.38;;;4.80;;
68089;SDS011;54880;50.986;6.990;2022-07-09T01:13:05;10.00;;;4.60;;
68089;SDS011;54880;50.986;6.990;2022-07-09T01:15:31;9.47;;;4.33;;
68089;SDS011;54880;50.986;6.990;2022-07-09T01:17:56;11.15;;;5.07;;
68089;SDS011;54880;50.986;6.990;2022-07-09T01:20:23;9.33;;;4.20;;
68089;SDS011;54880;50.986;6.990;2022-07-09T01:22:49;9.38;;;4.68;;
68089;SDS011;54880;50.986;6.990;2022-07-09T01:25:15;10.77;;;4.78;;
68089;SDS011;54880;50.986;6.990;2022-07-09T01:27:41;10.93;;;4.55;;
68089;SDS011;54880;50.986;6.990;2022-07-09T01:30:06;12.27;;;4.70;;
68089;SDS011;54880;50.986;6.990;2022-07-09T01:32:31;8.63;;;4.07;;
68089;SDS011;54880;50.986;6.990;2022-07-09T01:34:57;9.98;;;4.78;;
68089;SDS011;54880;50.986;6.990;2022-07-09T01:37:22;10.32;;;4.65;;
68089;SDS011;54880;50.986;6.990;2022-07-09T01:39:47;10.43;;;4.83;;
68089;SDS011;54880;50.986;6.990;2022-07-09T01:42:21;10.30;;;4.97;;
68089;SDS011;54880;50.986;6.990;2022-07-09T01:44:47;10.18;;;4.57;;
68089;SDS011;54880;50.986;6.990;2022-07-09T01:47:13;9.23;;;4.40;;
68089;SDS011;54880;50.986;6.990;2022-07-09T01:49:42;8.82;;;3.95;;
68089;SDS011;54880;50.986;6.990;2022-07-09T01:52:07;9.90;;;4.63;;
68089;SDS011;54880;50.986;6.990;2022-07-09T01:54:33;13.07;;;4.38;;
68089;SDS011;54880;50.986;6.990;2022-07-09T01:56:58;10.95;;;4.50;;
68089;SDS011;54880;50.986;6.990;2022-07-09T01:59:23;8.32;;;4.32;;
68089;SDS011;54880;50.986;6.990;2022-07-09T02:01:48;9.05;;;4.18;;
68089;SDS011;54880;50.986;6.990;2022-07-09T02:04:14;12.48;;;4.43;;
68089;SDS011;54880;50.986;6.990;2022-07-09T02:06:39;9.67;;;4.23;;
68089;SDS011;54880;50.986;6.990;2022-07-09T02:09:04;9.77;;;4.40;;
68089;SDS011;54880;50.986;6.990;2022-07-09T02:11:30;7.80;;;4.23;;
68089;SDS011;54880;50.986;6.990;2022-07-09T02:13:55;9.17;;;4.90;;
68089;SDS011;54880;50.986;6.990;2022-07-09T02:16:20;10.47;;;4.73;;
68089;SDS011;54880;50.986;6.990;2022-07-09T02:18:46;8.43;;;4.50;;
68089;SDS011;54880;50.986;6.990;2022-07-09T02:21:11;8.40;;;4.60;;
68089;SDS011;54880;50.986;6.990;2022-07-09T02:23:36;8.97;;;4.87;;
68089;SDS011;54880;50.986;6.990;2022-07-09T02:26:02;10.82;;;4.72;;
68089;SDS011;54880;50.986;6.990;2022-07-09T02:28:27;11.88;;;5.07;;
68089;SDS011;54880;50.986;6.990;2022-07-09T02:30:52;10.07;;;5.03;;
68089;SDS011;54880;50.986;6.990;2022-07-09T02:33:18;9.83;;;4.70;;
68089;SDS011;54880;50.986;6.990;2022-07-09T02:35:44;10.82;;;4.57;;
68089;SDS011;54880;50.986;6.990;2022-07-09T02:38:09;11.07;;;4.60;;
68089;SDS011;54880;50.986;6.990;2022-07-09T02:40:34;10.43;;;4.60;;
68089;SDS011;54880;50.986;6.990;2022-07-09T02:43:00;11.67;;;5.43;;
68089;SDS011;54880;50.986;6.990;2022-07-09T02:45:25;8.93;;;4.53;;
68089;SDS011;54880;50.986;6.990;2022-07-09T02:47:50;10.47;;;4.60;;
68089;SDS011;54880;50.986;6.990;2022-07-09T02:50:16;8.27;;;4.23;;
68089;SDS011;54880;50.986;6.990;2022-07-09T02:52:41;9.47;;;4.33;;
68089;SDS011;54880;50.986;6.990;2022-07-09T02:55:06;7.83;;;4.50;;
68089;SDS011;54880;50.986;6.990;2022-07-09T02:57:32;9.83;;;4.77;;
68089;SDS011;54880;50.986;6.990;2022-07-09T02:59:57;9.25;;;4.43;;
68089;SDS011;54880;50.986;6.990;2022-07-09T03:02:22;9.03;;;4.27;;
68089;SDS011;54880;50.986;6.990;2022-07-09T03:04:47;9.07;;;4.10;;
68089;SDS011;54880;50.986;6.990;2022-07-09T03:07:13;8.87;;;4.93;;
68089;SDS011;54880;50.986;6.990;2022-07-09T03:09:39;8.60;;;4.90;;
68089;SDS011;54880;50.986;6.990;2022-07-09T03:12:04;8.48;;;4.25;;
68089;SDS011;54880;50.986;6.990;2022-07-09T03:14:30;8.93;;;4.50;;
68089;SDS011;54880;50.986;6.990;2022-07-09T03:16:55;8.57;;;4.33;;
68089;SDS011;54880;50.986;6.990;2022-07-09T03:19:20;8.50;;;4.40;;
68089;SDS011;54880;50.986;6.990;2022-07-09T03:21:46;8.90;;;4.83;;
68089;SDS011;54880;50.986;6.990;2022-07-09T03:24:11;8.07;;;4.37;;
68089;SDS011;54880;50.986;6.990;2022-07-09T03:26:37;10.38;;;4.68;;
68089;SDS011;54880;50.986;6.990;2022-07-09T03:29:02;8.23;;;3.83;;
68089;SDS011;54880;50.986;6.990;2022-07-09T03:31:28;8.90;;;4.20;;
68089;SDS011;54880;50.986;6.990;2022-07-09T03:33:53;8.73;;;4.47;;
68089;SDS011;54880;50.986;6.990;2022-07-09T03:36:18;7.93;;;4.63;;
68089;SDS011;54880;50.986;6.990;2022-07-09T03:38:44;10.40;;;4.78;;
68089;SDS011;54880;50.986;6.990;2022-07-09T03:41:09;9.10;;;4.37;;
68089;SDS011;54880;50.986;6.990;2022-07-09T03:43:34;11.07;;;4.53;;
68089;SDS011;54880;50.986;6.990;2022-07-09T03:46:00;9.37;;;4.57;;
68089;SDS011;54880;50.986;6.990;2022-07-09T03:48:25;10.07;;;4.30;;
68089;SDS011;54880;50.986;6.990;2022-07-09T03:50:50;11.23;;;4.43;;
68089;SDS011;54880;50.986;6.990;2022-07-09T03:53:16;10.10;;;4.13;;
68089;SDS011;54880;50.986;6.990;2022-07-09T03:55:41;9.17;;;4.20;;
68089;SDS011;54880;50.986;6.990;2022-07-09T03:58:06;10.10;;;4.67;;
68089;SDS011;54880;50.986;6.990;2022-07-09T04:00:32;10.83;;;4.30;;
68089;SDS011;54880;50.986;6.990;2022-07-09T04:02:57;9.00;;;4.25;;
68089;SDS011;54880;50.986;6.990;2022-07-09T04:05:22;10.43;;;4.03;;
68089;SDS011;54880;50.986;6.990;2022-07-09T04:07:47;7.57;;;4.33;;
68089;SDS011;54880;50.986;6.990;2022-07-09T04:10:13;10.23;;;4.13;;
68089;SDS011;54880;50.986;6.990;2022-07-09T04:12:38;10.23;;;4.30;;
68089;SDS011;54880;50.986;6.990;2022-07-09T04:15:03;9.37;;;4.40;;
68089;SDS011;54880;50.986;6.990;2022-07-09T04:17:29;10.53;;;4.57;;
68089;SDS011;54880;50.986;6.990;2022-07-09T04:19:54;8.27;;;4.40;;
68089;SDS011;54880;50.986;6.990;2022-07-09T04:22:19;9.40;;;4.53;;
68089;SDS011;54880;50.986;6.990;2022-07-09T04:24:45;8.63;;;4.43;;
68089;SDS011;54880;50.986;6.990;2022-07-09T04:27:10;10.63;;;5.13;;
68089;SDS011;54880;50.986;6.990;2022-07-09T04:29:35;13.87;;;5.53;;
68089;SDS011;54880;50.986;6.990;2022-07-09T04:32:00;10.43;;;4.60;;
68089;SDS011;54880;50.986;6.990;2022-07-09T04:34:26;9.50;;;4.87;;
68089;SDS011;54880;50.986;6.990;2022-07-09T04:36:51;9.10;;;4.73;;
68089;SDS011;54880;50.986;6.990;2022-07-09T04:39:16;11.17;;;5.13;;
68089;SDS011;54880;50.986;6.990;2022-07-09T04:41:42;11.98;;;4.90;;
68089;SDS011;54880;50.986;6.990;2022-07-09T04:44:07;9.47;;;5.37;;
68089;SDS011;54880;50.986;6.990;2022-07-09T04:46:32;12.87;;;5.20;;
68089;SDS011;54880;50.986;6.990;2022-07-09T04:48:58;14.57;;;7.00;;
68089;SDS011;54880;50.986;6.990;2022-07-09T04:51:23;12.20;;;5.80;;
68089;SDS011;54880;50.986;6.990;2022-07-09T04:53:48;11.30;;;6.13;;
68089;SDS011;54880;50.986;6.990;2022-07-09T04:56:14;13.73;;;7.57;;
68089;SDS011;54880;50.986;6.990;2022-07-09T04:58:39;10.00;;;6.60;;
68089;SDS011;54880;50.986;6.990;2022-07-09T05:01:16;12.65;;;7.00;;
68089;SDS011;54880;50.986;6.990;2022-07-09T05:03:42;11.75;;;6.93;;
68089;SDS011;54880;50.986;6.990;2022-07-09T05:06:09;16.40;;;8.33;;
68089;SDS011;54880;50.986;6.990;2022-07-09T05:08:34;17.10;;;8.47;;
68089;SDS011;54880;50.986;6.990;2022-07-09T05:10:59;16.00;;;8.27;;
68089;SDS011;54880;50.986;6.990;2022-07-09T05:13:25;15.80;;;8.43;;
68089;SDS011;54880;50.986;6.990;2022-07-09T05:15:51;16.00;;;8.50;;
68089;SDS011;54880;50.986;6.990;2022-07-09T05:18:16;14.47;;;8.10;;
68089;SDS011;54880;50.986;6.990;2022-07-09T05:20:41;16.47;;;8.93;;
68089;SDS011;54880;50.986;6.990;2022-07-09T05:23:07;17.27;;;8.73;;
68089;SDS011;54880;50.986;6.990;2022-07-09T05:25:32;17.27;;;8.77;;
68089;SDS011;54880;50.986;6.990;2022-07-09T05:27:57;17.73;;;9.53;;
68089;SDS011;54880;50.986;6.990;2022-07-09T05:30:23;19.13;;;8.90;;
68089;SDS011;54880;50.986;6.990;2022-07-09T05:32:48;18.50;;;9.40;;
68089;SDS011;54880;50.986;6.990;2022-07-09T05:35:13;17.13;;;10.00;;
68089;SDS011;54880;50.986;6.990;2022-07-09T05:37:42;18.07;;;10.33;;
68089;SDS011;54880;50.986;6.990;2022-07-09T05:40:07;18.85;;;10.90;;
68089;SDS011;54880;50.986;6.990;2022-07-09T05:42:33;20.30;;;10.73;;
68089;SDS011;54880;50.986;6.990;2022-07-09T05:44:58;22.23;;;11.70;;
68089;SDS011;54880;50.986;6.990;2022-07-09T05:47:24;21.25;;;11.30;;
68089;SDS011;54880;50.986;6.990;2022-07-09T05:49:49;19.80;;;11.77;;
68089;SDS011;54880;50.986;6.990;2022-07-09T05:52:14;16.73;;;10.80;;
68089;SDS011;54880;50.986;6.990;2022-07-09T05:54:40;18.70;;;11.03;;
68089;SDS011;54880;50.986;6.990;2022-07-09T05:57:05;19.33;;;10.87;;
68089;SDS011;54880;50.986;6.990;2022-07-09T05:59:31;19.80;;;11.53;;
68089;SDS011;54880;50.986;6.990;2022-07-09T06:01:56;20.93;;;12.03;;
68089;SDS011;54880;50.986;6.990;2022-07-09T06:04:21;22.95;;;13.18;;
68089;SDS011;54880;50.986;6.990;2022-07-09T06:06:47;23.63;;;13.20;;
68089;SDS011;54880;50.986;6.990;2022-07-09T06:09:12;21.57;;;12.20;;
68089;SDS011;54880;50.986;6.990;2022-07-09T06:11:37;21.20;;;12.43;;
68089;SDS011;54880;50.986;6.990;2022-07-09T06:14:02;24.00;;;11.87;;
68089;SDS011;54880;50.986;6.990;2022-07-09T06:16:28;24.07;;;12.30;;
68089;SDS011;54880;50.986;6.990;2022-07-09T06:18:53;17.63;;;11.20;;
68089;SDS011;54880;50.986;6.990;2022-07-09T06:21:19;21.37;;;11.03;;
68089;SDS011;54880;50.986;6.990;2022-07-09T06:23:44;18.80;;;10.93;;
68089;SDS011;54880;50.986;6.990;2022-07-09T06:26:09;18.15;;;10.55;;
68089;SDS011;54880;50.986;6.990;2022-07-09T06:28:35;18.70;;;11.20;;
68089;SDS011;54880;50.986;6.990;2022-07-09T06:31:00;19.93;;;10.93;;
68089;SDS011;54880;50.986;6.990;2022-07-09T06:33:26;18.30;;;10.77;;
68089;SDS011;54880;50.986;6.990;2022-07-09T06:35:51;18.77;;;11.40;;
68089;SDS011;54880;50.986;6.990;2022-07-09T06:38:16;17.13;;;11.07;;
68089;SDS011;54880;50.986;6.990;2022-07-09T06:40:41;21.97;;;11.17;;
68089;SDS011;54880;50.986;6.990;2022-07-09T06:43:07;17.87;;;10.97;;
68089;SDS011;54880;50.986;6.990;2022-07-09T06:45:42;17.77;;;10.98;;
68089;SDS011;54880;50.986;6.990;2022-07-09T06:48:07;17.73;;;11.17;;
68089;SDS011;54880;50.986;6.990;2022-07-09T06:50:32;18.20;;;10.27;;
68089;SDS011;54880;50.986;6.990;2022-07-09T06:52:58;14.57;;;9.30;;
68089;SDS011;54880;50.986;6.990;2022-07-09T06:55:23;18.10;;;9.93;;
68089;SDS011;54880;50.986;6.990;2022-07-09T06:57:48;16.17;;;10.13;;
68089;SDS011;54880;50.986;6.990;2022-07-09T07:00:14;19.33;;;9.13;;
68089;SDS011;54880;50.986;6.990;2022-07-09T07:02:39;14.43;;;8.55;;
68089;SDS011;54880;50.986;6.990;2022-07-09T07:05:04;15.90;;;7.20;;
68089;SDS011;54880;50.986;6.990;2022-07-09T07:07:30;15.13;;;8.43;;
68089;SDS011;54880;50.986;6.990;2022-07-09T07:09:55;15.50;;;7.33;;
68089;SDS011;54880;50.986;6.990;2022-07-09T07:12:21;16.63;;;7.07;;
68089;SDS011;54880;50.986;6.990;2022-07-09T07:14:46;13.73;;;6.17;;
68089;SDS011;54880;50.986;6.990;2022-07-09T07:17:11;13.40;;;6.60;;
68089;SDS011;54880;50.986;6.990;2022-07-09T07:19:36;11.60;;;6.50;;
68089;SDS011;54880;50.986;6.990;2022-07-09T07:22:02;14.90;;;6.63;;
68089;SDS011;54880;50.986;6.990;2022-07-09T07:24:27;12.40;;;5.50;;
68089;SDS011;54880;50.986;6.990;2022-07-09T07:26:55;8.97;;;3.87;;
68089;SDS011;54880;50.986;6.990;2022-07-09T07:29:21;9.43;;;4.10;;
68089;SDS011;54880;50.986;6.990;2022-07-09T07:31:46;11.00;;;5.43;;
68089;SDS011;54880;50.986;6.990;2022-07-09T07:34:12;10.67;;;4.67;;
68089;SDS011;54880;50.986;6.990;2022-07-09T07:36:37;11.97;;;5.57;;
68089;SDS011;54880;50.986;6.990;2022-07-09T07:39:02;8.47;;;4.57;;
68089;SDS011;54880;50.986;6.990;2022-07-09T07:41:28;10.55;;;4.55;;
68089;SDS011;54880;50.986;6.990;2022-07-09T07:43:53;10.23;;;5.03;;
68089;SDS011;54880;50.986;6.990;2022-07-09T07:46:18;10.00;;;4.67;;
68089;SDS011;54880;50.986;6.990;2022-07-09T07:48:44;7.87;;;3.63;;
68089;SDS011;54880;50.986;6.990;2022-07-09T07:51:09;8.50;;;4.20;;
68089;SDS011;54880;50.986;6.990;2022-07-09T07:53:35;11.43;;;5.75;;
68089;SDS011;54880;50.986;6.990;2022-07-09T07:56:01;11.33;;;4.40;;
68089;SDS011;54880;50.986;6.990;2022-07-09T07:58:27;6.70;;;2.53;;
68089;SDS011;54880;50.986;6.990;2022-07-09T08:00:52;6.00;;;2.43;;
68089;SDS011;54880;50.986;6.990;2022-07-09T08:03:18;8.60;;;2.83;;
68089;SDS011;54880;50.986;6.990;2022-07-09T08:05:43;6.13;;;2.77;;
68089;SDS011;54880;50.986;6.990;2022-07-09T08:08:09;10.93;;;2.60;;
68089;SDS011;54880;50.986;6.990;2022-07-09T08:10:34;6.83;;;2.90;;
68089;SDS011;54880;50.986;6.990;2022-07-09T08:12:59;8.10;;;3.42;;
68089;SDS011;54880;50.986;6.990;2022-07-09T08:15:25;8.00;;;3.42;;
68089;SDS011;54880;50.986;6.990;2022-07-09T08:17:50;7.67;;;3.47;;
68089;SDS011;54880;50.986;6.990;2022-07-09T08:20:15;7.83;;;3.33;;
68089;SDS011;54880;50.986;6.990;2022-07-09T08:22:41;9.20;;;3.10;;
68089;SDS011;54880;50.986;6.990;2022-07-09T08:25:06;7.30;;;3.47;;
68089;SDS011;54880;50.986;6.990;2022-07-09T08:27:31;8.87;;;3.60;;
68089;SDS011;54880;50.986;6.990;2022-07-09T08:29:56;10.17;;;3.07;;
68089;SDS011;54880;50.986;6.990;2022-07-09T08:32:22;7.13;;;2.80;;
68089;SDS011;54880;50.986;6.990;2022-07-09T08:34:47;9.30;;;2.83;;
68089;SDS011;54880;50.986;6.990;2022-07-09T08:37:12;9.00;;;3.30;;
68089;SDS011;54880;50.986;6.990;2022-07-09T08:39:37;9.03;;;3.43;;
68089;SDS011;54880;50.986;6.990;2022-07-09T08:42:03;9.03;;;3.83;;
68089;SDS011;54880;50.986;6.990;2022-07-09T08:44:32;10.90;;;3.63;;
68089;SDS011;54880;50.986;6.990;2022-07-09T08:47:00;8.60;;;3.15;;
68089;SDS011;54880;50.986;6.990;2022-07-09T08:49:26;9.47;;;3.67;;
68089;SDS011;54880;50.986;6.990;2022-07-09T08:51:52;10.45;;;3.95;;
68089;SDS011;54880;50.986;6.990;2022-07-09T08:54:18;12.82;;;3.78;;
68089;SDS011;54880;50.986;6.990;2022-07-09T08:56:45;8.40;;;3.50;;
68089;SDS011;54880;50.986;6.990;2022-07-09T08:59:10;10.10;;;3.43;;
68089;SDS011;54880;50.986;6.990;2022-07-09T09:01:35;6.40;;;2.70;;
68089;SDS011;54880;50.986;6.990;2022-07-09T09:04:01;6.60;;;2.67;;
68089;SDS011;54880;50.986;6.990;2022-07-09T09:06:27;8.52;;;3.00;;
68089;SDS011;54880;50.986;6.990;2022-07-09T09:08:55;7.13;;;2.87;;
68089;SDS011;54880;50.986;6.990;2022-07-09T09:11:21;7.72;;;2.70;;
68089;SDS011;54880;50.986;6.990;2022-07-09T09:13:50;7.70;;;3.10;;
68089;SDS011;54880;50.986;6.990;2022-07-09T09:16:16;7.10;;;2.73;;
68089;SDS011;54880;50.986;6.990;2022-07-09T09:18:42;6.82;;;2.08;;
68089;SDS011;54880;50.986;6.990;2022-07-09T09:21:08;6.88;;;2.10;;
68089;SDS011;54880;50.986;6.990;2022-07-09T09:26:09;7.68;;;2.83;;
68089;SDS011;54880;50.986;6.990;2022-07-09T09:28:44;5.22;;;1.70;;
68089;SDS011;54880;50.986;6.990;2022-07-09T09:33:44;5.00;;;1.80;;
68089;SDS011;54880;50.986;6.990;2022-07-09T09:36:09;5.90;;;1.97;;
68089;SDS011;54880;50.986;6.990;2022-07-09T09:38:34;5.97;;;1.67;;
68089;SDS011;54880;50.986;6.990;2022-07-09T09:41:00;5.77;;;2.00;;
68089;SDS011;54880;50.986;6.990;2022-07-09T09:43:25;8.50;;;1.57;;
68089;SDS011;54880;50.986;6.990;2022-07-09T09:45:51;5.10;;;1.63;;
68089;SDS011;54880;50.986;6.990;2022-07-09T09:48:19;5.47;;;1.70;;
68089;SDS011;54880;50.986;6.990;2022-07-09T09:50:44;5.17;;;1.80;;
68089;SDS011;54880;50.986;6.990;2022-07-09T09:53:12;4.78;;;1.30;;
68089;SDS011;54880;50.986;6.990;2022-07-09T09:55:38;5.47;;;1.40;;
68089;SDS011;54880;50.986;6.990;2022-07-09T09:58:05;5.43;;;1.50;;
68089;SDS011;54880;50.986;6.990;2022-07-09T10:00:31;6.17;;;1.70;;
68089;SDS011;54880;50.986;6.990;2022-07-09T10:02:57;5.38;;;1.70;;
68089;SDS011;54880;50.986;6.990;2022-07-09T10:05:22;5.20;;;1.60;;
68089;SDS011;54880;50.986;6.990;2022-07-09T10:07:47;6.87;;;1.50;;
68089;SDS011;54880;50.986;6.990;2022-07-09T10:10:16;6.33;;;2.00;;
68089;SDS011;54880;50.986;6.990;2022-07-09T10:12:41;5.30;;;1.60;;
68089;SDS011;54880;50.986;6.990;2022-07-09T10:15:23;5.37;;;1.70;;
68089;SDS011;54880;50.986;6.990;2022-07-09T10:17:48;5.00;;;1.60;;
68089;SDS011;54880;50.986;6.990;2022-07-09T10:20:14;6.50;;;1.73;;
68089;SDS011;54880;50.986;6.990;2022-07-09T10:22:40;7.70;;;1.60;;
68089;SDS011;54880;50.986;6.990;2022-07-09T10:25:06;6.40;;;1.88;;
68089;SDS011;54880;50.986;6.990;2022-07-09T10:27:44;5.45;;;2.10;;
68089;SDS011;54880;50.986;6.990;2022-07-09T10:30:21;5.90;;;2.10;;
68089;SDS011;54880;50.986;6.990;2022-07-09T10:32:47;4.83;;;1.70;;
68089;SDS011;54880;50.986;6.990;2022-07-09T10:35:13;5.22;;;1.80;;
68089;SDS011;54880;50.986;6.990;2022-07-09T10:40:16;6.87;;;2.10;;
68089;SDS011;54880;50.986;6.990;2022-07-09T10:42:43;7.93;;;1.90;;
68089;SDS011;54880;50.986;6.990;2022-07-09T10:45:42;9.00;;;2.25;;
68089;SDS011;54880;50.986;6.990;2022-07-09T10:48:00;6.18;;;2.10;;
68089;SDS011;54880;50.986;6.990;2022-07-09T10:50:26;7.00;;;2.00;;
68089;SDS011;54880;50.986;6.990;2022-07-09T10:52:53;5.85;;;2.00;;
68089;SDS011;54880;50.986;6.990;2022-07-09T10:55:18;6.50;;;2.20;;
68089;SDS011;54880;50.986;6.990;2022-07-09T10:57:44;6.00;;;1.83;;
68089;SDS011;54880;50.986;6.990;2022-07-09T11:00:13;6.95;;;1.98;;
68089;SDS011;54880;50.986;6.990;2022-07-09T11:02:49;6.20;;;2.28;;
68089;SDS011;54880;50.986;6.990;2022-07-09T11:05:15;8.10;;;1.70;;
68089;SDS011;54880;50.986;6.990;2022-07-09T11:07:40;5.07;;;1.73;;
68089;SDS011;54880;50.986;6.990;2022-07-09T11:10:05;5.63;;;1.60;;
68089;SDS011;54880;50.986;6.990;2022-07-09T11:12:30;5.95;;;1.63;;
68089;SDS011;54880;50.986;6.990;2022-07-09T11:14:56;5.10;;;1.60;;
68089;SDS011;54880;50.986;6.990;2022-07-09T11:17:21;5.50;;;1.80;;
68089;SDS011;54880;50.986;6.990;2022-07-09T11:19:47;6.93;;;2.20;;
68089;SDS011;54880;50.986;6.990;2022-07-09T11:22:13;6.28;;;1.92;;
68089;SDS011;54880;50.986;6.990;2022-07-09T11:24:39;7.15;;;1.67;;
68089;SDS011;54880;50.986;6.990;2022-07-09T11:27:05;6.00;;;1.60;;
68089;SDS011;54880;50.986;6.990;2022-07-09T11:29:30;4.73;;;1.40;;
68089;SDS011;54880;50.986;6.990;2022-07-09T11:31:56;5.88;;;1.95;;
68089;SDS011;54880;50.986;6.990;2022-07-09T11:34:21;5.47;;;1.90;;
68089;SDS011;54880;50.986;6.990;2022-07-09T11:36:48;4.70;;;1.77;;
68089;SDS011;54880;50.986;6.990;2022-07-09T11:39:28;5.40;;;1.55;;
68089;SDS011;54880;50.986;6.990;2022-07-09T11:41:54;4.05;;;1.42;;
68089;SDS011;54880;50.986;6.990;2022-07-09T11:44:23;5.40;;;1.50;;
68089;SDS011;54880;50.986;6.990;2022-07-09T11:47:02;7.03;;;1.70;;
68089;SDS011;54880;50.986;6.990;2022-07-09T11:49:37;5.10;;;1.60;;
68089;SDS011;54880;50.986;6.990;2022-07-09T11:52:03;5.30;;;1.60;;
68089;SDS011;54880;50.986;6.990;2022-07-09T11:54:29;4.77;;;1.93;;
68089;SDS011;54880;50.986;6.990;2022-07-09T11:56:54;5.93;;;1.77;;
68089;SDS011;54880;50.986;6.990;2022-07-09T11:59:29;5.00;;;1.60;;
68089;SDS011;54880;50.986;6.990;2022-07-09T12:01:59;6.57;;;1.80;;
68089;SDS011;54880;50.986;6.990;2022-07-09T12:04:24;5.83;;;1.90;;
68089;SDS011;54880;50.986;6.990;2022-07-09T12:06:52;6.15;;;1.60;;
68089;SDS011;54880;50.986;6.990;2022-07-09T12:09:27;6.60;;;1.67;;
68089;SDS011;54880;50.986;6.990;2022-07-09T12:11:54;6.38;;;2.13;;
68089;SDS011;54880;50.986;6.990;2022-07-09T12:14:19;6.80;;;2.80;;
68089;SDS011;54880;50.986;6.990;2022-07-09T12:16:44;9.10;;;2.30;;
68089;SDS011;54880;50.986;6.990;2022-07-09T12:19:09;7.13;;;2.10;;
68089;SDS011;54880;50.986;6.990;2022-07-09T12:21:35;6.30;;;2.00;;
68089;SDS011;54880;50.986;6.990;2022-07-09T12:24:00;7.53;;;2.40;;
68089;SDS011;54880;50.986;6.990;2022-07-09T12:26:26;6.80;;;2.33;;
68089;SDS011;54880;50.986;6.990;2022-07-09T12:28:51;6.73;;;1.97;;
68089;SDS011;54880;50.986;6.990;2022-07-09T12:31:16;7.87;;;2.10;;
68089;SDS011;54880;50.986;6.990;2022-07-09T12:33:41;7.13;;;2.40;;
68089;SDS011;54880;50.986;6.990;2022-07-09T12:36:07;6.13;;;2.60;;
68089;SDS011;54880;50.986;6.990;2022-07-09T12:38:32;6.53;;;2.40;;
68089;SDS011;54880;50.986;6.990;2022-07-09T12:40:57;5.07;;;2.20;;
68089;SDS011;54880;50.986;6.990;2022-07-09T12:43:23;7.73;;;2.47;;
68089;SDS011;54880;50.986;6.990;2022-07-09T12:45:48;6.60;;;3.00;;
68089;SDS011;54880;50.986;6.990;2022-07-09T12:48:13;5.50;;;2.70;;
68089;SDS011;54880;50.986;6.990;2022-07-09T12:50:38;6.47;;;2.60;;
68089;SDS011;54880;50.986;6.990;2022-07-09T12:53:04;6.43;;;2.60;;
68089;SDS011;54880;50.986;6.990;2022-07-09T12:55:29;7.57;;;2.57;;
68089;SDS011;54880;50.986;6.990;2022-07-09T12:57:54;7.68;;;2.50;;
68089;SDS011;54880;50.986;6.990;2022-07-09T13:00:19;6.13;;;3.17;;
68089;SDS011;54880;50.986;6.990;2022-07-09T13:02:46;9.33;;;2.87;;
68089;SDS011;54880;50.986;6.990;2022-07-09T13:05:11;7.60;;;3.40;;
68089;SDS011;54880;50.986;6.990;2022-07-09T13:07:39;7.55;;;3.35;;
68089;SDS011;54880;50.986;6.990;2022-07-09T13:10:05;6.10;;;2.60;;
68089;SDS011;54880;50.986;6.990;2022-07-09T13:12:30;7.75;;;2.80;;
68089;SDS011;54880;50.986;6.990;2022-07-09T13:14:57;9.07;;;3.23;;
68089;SDS011;54880;50.986;6.990;2022-07-09T13:17:23;8.10;;;3.00;;
68089;SDS011;54880;50.986;6.990;2022-07-09T13:19:48;10.60;;;3.00;;
68089;SDS011;54880;50.986;6.990;2022-07-09T13:22:13;6.70;;;3.10;;
68089;SDS011;54880;50.986;6.990;2022-07-09T13:24:39;8.23;;;3.60;;
68089;SDS011;54880;50.986;6.990;2022-07-09T13:27:04;6.70;;;3.30;;
68089;SDS011;54880;50.986;6.990;2022-07-09T13:29:33;7.30;;;3.40;;
68089;SDS011;54880;50.986;6.990;2022-07-09T13:31:58;8.10;;;3.22;;
68089;SDS011;54880;50.986;6.990;2022-07-09T13:34:24;9.40;;;3.73;;
68089;SDS011;54880;50.986;6.990;2022-07-09T13:36:49;7.87;;;3.53;;
68089;SDS011;54880;50.986;6.990;2022-07-09T13:39:14;9.33;;;3.47;;
68089;SDS011;54880;50.986;6.990;2022-07-09T13:41:40;8.00;;;3.77;;
68089;SDS011;54880;50.986;6.990;2022-07-09T13:44:05;7.23;;;3.77;;
68089;SDS011;54880;50.986;6.990;2022-07-09T13:46:32;8.85;;;3.95;;
68089;SDS011;54880;50.986;6.990;2022-07-09T13:48:58;8.23;;;3.80;;
68089;SDS011;54880;50.986;6.990;2022-07-09T13:51:23;9.40;;;4.93;;
68089;SDS011;54880;50.986;6.990;2022-07-09T13:53:49;12.67;;;5.00;;
68089;SDS011;54880;50.986;6.990;2022-07-09T13:56:14;9.87;;;4.97;;
68089;SDS011;54880;50.986;6.990;2022-07-09T13:58:39;10.03;;;5.07;;
68089;SDS011;54880;50.986;6.990;2022-07-09T14:01:04;7.30;;;4.80;;
68089;SDS011;54880;50.986;6.990;2022-07-09T14:03:30;11.40;;;5.40;;
68089;SDS011;54880;50.986;6.990;2022-07-09T14:05:55;10.27;;;5.80;;
68089;SDS011;54880;50.986;6.990;2022-07-09T14:08:20;11.37;;;5.00;;
68089;SDS011;54880;50.986;6.990;2022-07-09T14:10:49;10.02;;;5.00;;
68089;SDS011;54880;50.986;6.990;2022-07-09T14:13:16;11.57;;;5.63;;
68089;SDS011;54880;50.986;6.990;2022-07-09T14:15:41;10.10;;;5.13;;
68089;SDS011;54880;50.986;6.990;2022-07-09T14:18:06;9.73;;;5.37;;
68089;SDS011;54880;50.986;6.990;2022-07-09T14:20:32;11.60;;;5.83;;
68089;SDS011;54880;50.986;6.990;2022-07-09T14:22:57;11.60;;;5.50;;
68089;SDS011;54880;50.986;6.990;2022-07-09T14:25:22;10.20;;;4.73;;
68089;SDS011;54880;50.986;6.990;2022-07-09T14:27:49;9.55;;;4.53;;
68089;SDS011;54880;50.986;6.990;2022-07-09T14:30:15;9.40;;;4.13;;
68089;SDS011;54880;50.986;6.990;2022-07-09T14:32:40;9.53;;;4.30;;
68089;SDS011;54880;50.986;6.990;2022-07-09T14:35:05;8.67;;;4.30;;
68089;SDS011;54880;50.986;6.990;2022-07-09T14:37:31;8.83;;;4.53;;
68089;SDS011;54880;50.986;6.990;2022-07-09T14:39:56;11.37;;;4.67;;